Time;durP1;ratioP1;P1;durP2;ratioP2;P2;SDS_P1;SDS_P2;PMS_P1;PMS_P2;Temp;Humidity;BMP_temperature;BMP_pressure;BME280_temperature;BME280_humidity;BME280_pressure;Samples;Min_cycle;Max_cycle;Signal;HPM_P1;HPM_P2
2022/10/26 00:00:37;;;;;;;17.13;4.70;;;13.90;1.00;;;;;;5073112;28;20475;-55
2022/10/26 00:03:03;;;;;;;8.40;4.13;;;14.00;1.00;;;;;;5071457;28;20906;-55
2022/10/26 00:05:33;;;;;;;9.23;4.50;;;14.00;1.00;;;;;;5072405;28;20388;-55
2022/10/26 00:07:59;;;;;;;9.10;4.30;;;14.00;1.00;;;;;;5071872;28;20383;-55
2022/10/26 00:10:25;;;;;;;14.02;4.30;;;14.00;99.90;;;;;;5072151;28;20395;-55
2022/10/26 00:12:51;;;;;;;9.07;4.03;;;14.10;99.90;;;;;;5072120;28;20414;-55
2022/10/26 00:15:18;;;;;;;9.35;4.20;;;14.00;99.90;;;;;;5071926;28;20447;-55
2022/10/26 00:17:44;;;;;;;12.05;4.40;;;13.90;99.90;;;;;;5072704;28;20833;-55
2022/10/26 00:20:10;;;;;;;10.15;4.18;;;14.00;99.90;;;;;;5071938;28;20387;-55
2022/10/26 00:22:36;;;;;;;9.50;4.03;;;14.00;99.90;;;;;;5072647;28;20376;-55
2022/10/26 00:25:01;;;;;;;9.67;4.40;;;14.10;99.90;;;;;;5071638;28;20387;-55
2022/10/26 00:27:27;;;;;;;11.02;4.70;;;14.20;99.90;;;;;;5072385;28;20380;-55
2022/10/26 00:29:53;;;;;;;9.67;4.40;;;14.20;99.90;;;;;;5070778;28;20729;-56
2022/10/26 00:32:18;;;;;;;18.40;4.77;;;14.20;99.90;;;;;;5071360;28;20410;-55
2022/10/26 00:34:44;;;;;;;11.68;4.60;;;14.20;99.90;;;;;;5071663;28;20407;-55
2022/10/26 00:37:09;;;;;;;10.20;4.00;;;15.00;99.90;;;;;;5071583;28;20875;-55
2022/10/26 00:39:35;;;;;;;9.00;3.90;;;14.00;99.90;;;;;;5072138;28;20916;-55
2022/10/26 00:42:01;;;;;;;7.72;3.30;;;14.10;99.90;;;;;;5071463;28;20387;-55
2022/10/26 00:44:45;;;;;;;9.73;3.80;;;14.10;99.90;;;;;;5072003;28;20380;-55
2022/10/26 00:47:16;;;;;;;10.07;3.72;;;14.10;99.90;;;;;;5070717;28;20380;-55
2022/10/26 00:49:45;;;;;;;9.10;3.70;;;14.10;1.00;;;;;;5071935;28;20372;-55
2022/10/26 00:52:12;;;;;;;10.75;3.90;;;14.10;1.00;;;;;;5071293;28;20388;-55
2022/10/26 00:54:37;;;;;;;11.57;4.32;;;14.10;1.00;;;;;;5071654;28;20399;-55
2022/10/26 00:57:03;;;;;;;8.53;3.80;;;14.20;1.00;;;;;;5070819;28;20442;-55
2022/10/26 00:59:29;;;;;;;8.50;4.03;;;14.30;1.00;;;;;;5071517;28;20379;-55
2022/10/26 01:01:55;;;;;;;9.20;3.55;;;14.30;99.90;;;;;;5070764;28;20399;-55
2022/10/26 01:04:21;;;;;;;9.00;3.87;;;14.30;99.90;;;;;;5071558;28;20388;-55
2022/10/26 01:06:48;;;;;;;8.50;3.70;;;14.40;99.90;;;;;;5070977;28;20380;-55
2022/10/26 01:09:15;;;;;;;8.50;3.55;;;14.30;99.90;;;;;;5070356;28;20464;-55
2022/10/26 01:11:41;;;;;;;11.60;4.50;;;14.30;99.90;;;;;;5071426;28;20787;-55
2022/10/26 01:14:09;;;;;;;10.85;3.72;;;14.30;99.90;;;;;;5070566;28;20927;-55
2022/10/26 01:16:49;;;;;;;10.38;3.78;;;14.40;99.90;;;;;;5071076;28;20387;-55
2022/10/26 01:19:37;;;;;;;8.10;3.33;;;14.40;99.90;;;;;;5071133;28;20420;-55
2022/10/26 01:22:15;;;;;;;8.77;3.70;;;14.40;99.90;;;;;;5070436;28;20395;-55
2022/10/26 01:25:16;;;;;;;9.90;3.78;;;14.40;99.90;;;;;;5071105;28;20382;-55
2022/10/26 01:27:45;;;;;;;10.50;4.00;;;14.40;99.90;;;;;;5070983;28;20432;-55
2022/10/26 01:30:26;;;;;;;9.65;3.60;;;14.50;99.90;;;;;;5070382;28;20901;-55
2022/10/26 01:33:13;;;;;;;10.85;3.42;;;14.50;99.90;;;;;;5070319;28;21009;-55
2022/10/26 01:36:11;;;;;;;11.85;3.45;;;14.60;99.90;;;;;;5071207;28;20412;-55
2022/10/26 01:39:08;;;;;;;10.10;3.50;;;14.50;99.90;;;;;;5071004;28;20396;-55
2022/10/26 01:41:54;;;;;;;10.18;3.72;;;14.60;99.90;;;;;;5071136;28;20428;-55
2022/10/26 01:44:43;;;;;;;10.03;3.70;;;14.60;99.90;;;;;;5070702;28;20897;-55
2022/10/26 01:47:15;;;;;;;8.50;3.50;;;14.50;99.90;;;;;;5069639;28;21028;-55
2022/10/26 01:49:46;;;;;;;10.15;3.20;;;14.30;99.90;;;;;;5070591;28;20441;-55
2022/10/26 01:52:12;;;;;;;11.88;3.80;;;14.20;99.90;;;;;;5069603;28;20731;-55
2022/10/26 01:54:38;;;;;;;8.20;3.70;;;14.20;99.90;;;;;;5070584;28;20400;-55
2022/10/26 01:57:07;;;;;;;9.05;4.35;;;14.20;99.90;;;;;;5069866;28;20380;-55
2022/10/26 01:59:51;;;;;;;10.20;3.70;;;14.10;1.00;;;;;;5070612;28;20417;-55
2022/10/26 02:02:44;;;;;;;13.00;4.15;;;14.00;1.00;;;;;;5070126;28;20729;-55
2022/10/26 02:05:21;;;;;;;9.52;3.83;;;14.00;1.00;;;;;;5069508;28;20386;-55
2022/10/26 02:07:55;;;;;;;7.75;3.22;;;14.10;1.00;;;;;;5070227;28;20383;-55
2022/10/26 02:10:29;;;;;;;9.90;4.07;;;14.10;1.00;;;;;;5052531;28;20395;-55
2022/10/26 02:13:01;;;;;;;10.33;4.43;;;14.20;1.00;;;;;;5069298;28;20516;-55
2022/10/26 02:15:53;;;;;;;9.13;4.20;;;14.20;99.90;;;;;;5069904;28;20403;-55
2022/10/26 02:18:42;;;;;;;10.15;3.65;;;14.10;1.00;;;;;;5070550;28;20392;-55
2022/10/26 02:21:18;;;;;;;14.07;4.50;;;14.10;1.00;;;;;;5068748;28;20459;-55
2022/10/26 02:23:46;;;;;;;10.27;4.28;;;14.10;1.00;;;;;;5069965;28;20383;-55
2022/10/26 02:26:15;;;;;;;12.65;4.63;;;14.10;1.00;;;;;;5069363;28;20371;-55
2022/10/26 02:28:45;;;;;;;9.50;4.20;;;14.10;1.00;;;;;;5070397;28;20391;-55
2022/10/26 02:31:14;;;;;;;10.30;4.20;;;14.00;1.00;;;;;;5069650;28;20902;-55
2022/10/26 02:33:44;;;;;;;12.00;4.50;;;14.00;1.00;;;;;;5069818;28;20408;-55
2022/10/26 02:36:13;;;;;;;9.83;3.90;;;13.90;1.00;;;;;;5069062;28;20384;-55
2022/10/26 02:38:40;;;;;;;9.13;3.60;;;13.90;1.00;;;;;;5070430;28;20437;-55
2022/10/26 02:41:09;;;;;;;9.30;4.22;;;13.80;1.00;;;;;;5069255;28;20373;-55
2022/10/26 02:43:41;;;;;;;12.55;4.30;;;13.80;1.00;;;;;;5070287;28;20383;-55
2022/10/26 02:46:12;;;;;;;8.13;3.93;;;13.90;1.00;;;;;;5069143;28;20376;-55
2022/10/26 02:48:38;;;;;;;8.70;3.55;;;13.90;1.00;;;;;;5069592;28;20382;-55
2022/10/26 02:51:23;;;;;;;14.30;4.27;;;13.90;1.00;;;;;;5068951;28;20383;-55
2022/10/26 02:53:59;;;;;;;9.77;3.60;;;13.90;1.00;;;;;;5069716;28;20390;-56
2022/10/26 02:56:33;;;;;;;11.00;4.38;;;13.90;1.00;;;;;;5069924;28;20475;-55
2022/10/26 02:59:03;;;;;;;9.38;4.03;;;14.00;1.00;;;;;;5069026;28;20455;-55
2022/10/26 03:01:30;;;;;;;9.55;3.90;;;14.00;1.00;;;;;;5069052;28;20851;-55
2022/10/26 03:03:59;;;;;;;11.65;3.92;;;14.00;1.00;;;;;;5069255;28;20483;-55
2022/10/26 03:06:25;;;;;;;9.68;4.03;;;14.10;1.00;;;;;;5069641;28;20380;-55
2022/10/26 03:08:51;;;;;;;10.65;4.00;;;14.00;1.00;;;;;;5068891;28;20880;-55
2022/10/26 03:11:17;;;;;;;10.43;3.87;;;13.90;1.00;;;;;;5069711;28;20376;-55
2022/10/26 03:13:43;;;;;;;11.15;4.35;;;13.90;1.00;;;;;;5070052;28;20451;-55
2022/10/26 03:16:14;;;;;;;9.95;4.40;;;13.90;1.00;;;;;;5068358;28;20451;-55
2022/10/26 03:18:40;;;;;;;9.48;4.28;;;13.90;1.00;;;;;;5069649;28;20428;-55
2022/10/26 03:21:05;;;;;;;13.43;4.80;;;13.90;1.00;;;;;;5068989;28;20375;-55
2022/10/26 03:23:31;;;;;;;11.90;4.53;;;13.80;1.00;;;;;;5069836;28;20372;-55
2022/10/26 03:25:58;;;;;;;11.17;4.10;;;13.80;1.00;;;;;;5068568;28;20384;-55
2022/10/26 03:28:24;;;;;;;11.50;3.75;;;13.90;1.00;;;;;;5069419;28;20380;-55
2022/10/26 03:30:50;;;;;;;9.40;4.57;;;14.00;1.00;;;;;;5068844;28;20395;-56
2022/10/26 03:33:15;;;;;;;10.75;4.40;;;14.10;1.00;;;;;;5071409;28;20819;-55
2022/10/26 03:35:41;;;;;;;8.97;4.33;;;14.10;1.00;;;;;;5073411;28;20403;-55
2022/10/26 03:38:06;;;;;;;10.40;4.40;;;14.20;99.90;;;;;;5072986;28;20395;-56
2022/10/26 03:40:32;;;;;;;10.02;4.43;;;14.20;99.90;;;;;;5073602;28;20377;-55
2022/10/26 03:42:58;;;;;;;10.50;4.88;;;14.20;99.90;;;;;;5072804;28;20387;-55
2022/10/26 03:45:23;;;;;;;13.77;4.20;;;14.10;99.90;;;;;;5072977;28;20387;-55
2022/10/26 03:47:49;;;;;;;8.90;4.03;;;14.10;1.00;;;;;;5073237;28;20376;-55
2022/10/26 03:50:17;;;;;;;9.75;4.40;;;14.10;1.00;;;;;;5072357;28;20387;-55
2022/10/26 03:52:44;;;;;;;9.85;4.68;;;14.10;1.00;;;;;;5072691;28;20445;-55
2022/10/26 03:55:10;;;;;;;10.40;4.60;;;14.00;1.00;;;;;;5071934;28;20426;-55
2022/10/26 03:57:45;;;;;;;10.50;4.30;;;13.90;1.00;;;;;;5072866;28;20380;-55
2022/10/26 04:00:16;;;;;;;10.25;4.57;;;13.80;1.00;;;;;;5071979;28;20821;-55
2022/10/26 04:02:45;;;;;;;10.65;4.50;;;13.90;1.00;;;;;;5072435;28;20409;-55
2022/10/26 04:05:11;;;;;;;9.00;3.80;;;13.90;1.00;;;;;;5071743;28;20529;-56
2022/10/26 04:07:36;;;;;;;10.10;3.80;;;13.90;1.00;;;;;;5072780;28;20896;-55
2022/10/26 04:10:04;;;;;;;9.47;4.40;;;13.90;1.00;;;;;;5071609;28;20368;-55
2022/10/26 04:12:29;;;;;;;11.60;4.00;;;13.90;1.00;;;;;;5072133;28;20384;-56
2022/10/26 04:14:57;;;;;;;10.55;4.47;;;13.90;1.00;;;;;;5071560;28;20459;-55
2022/10/26 04:17:23;;;;;;;11.20;4.47;;;13.90;1.00;;;;;;5072032;28;20406;-55
2022/10/26 04:19:49;;;;;;;8.20;4.05;;;13.90;1.00;;;;;;5072136;28;20457;-55
2022/10/26 04:22:15;;;;;;;10.63;3.87;;;14.00;1.00;;;;;;5072083;28;20376;-55
2022/10/26 04:24:40;;;;;;;10.38;4.43;;;14.10;1.00;;;;;;5072561;28;20399;-56
2022/10/26 04:27:06;;;;;;;8.00;3.90;;;14.10;1.00;;;;;;5071998;28;20387;-56
2022/10/26 04:29:31;;;;;;;9.90;4.20;;;14.10;1.00;;;;;;5072564;28;20391;-55
2022/10/26 04:31:57;;;;;;;10.52;4.50;;;14.10;1.00;;;;;;5071148;28;20767;-56
2022/10/26 04:34:23;;;;;;;10.15;4.55;;;14.10;1.00;;;;;;5072224;28;20456;-55
2022/10/26 04:36:48;;;;;;;11.10;4.77;;;14.20;1.00;;;;;;5072114;28;20384;-55
2022/10/26 04:39:14;;;;;;;11.32;4.10;;;14.30;99.90;;;;;;5071574;28;20456;-55
2022/10/26 04:41:39;;;;;;;11.18;4.10;;;14.20;1.00;;;;;;5071883;28;20441;-55
2022/10/26 04:44:05;;;;;;;9.30;4.90;;;14.10;1.00;;;;;;5070684;28;20371;-55
2022/10/26 04:46:30;;;;;;;13.93;4.50;;;14.00;1.00;;;;;;5071715;28;20396;-55
2022/10/26 04:48:56;;;;;;;13.55;4.10;;;14.00;1.00;;;;;;5070947;28;20375;-55
2022/10/26 04:51:22;;;;;;;10.02;4.05;;;14.10;1.00;;;;;;5071514;28;20387;-55
2022/10/26 04:53:47;;;;;;;11.63;4.50;;;14.10;1.00;;;;;;5071735;28;20768;-56
2022/10/26 04:56:13;;;;;;;11.27;4.40;;;14.00;1.00;;;;;;5071204;28;20414;-55
2022/10/26 04:58:38;;;;;;;13.48;4.22;;;14.10;1.00;;;;;;5071635;28;20381;-55
2022/10/26 05:01:04;;;;;;;11.53;4.07;;;14.00;1.00;;;;;;5071287;28;20404;-55
2022/10/26 05:03:29;;;;;;;8.70;4.17;;;14.00;1.00;;;;;;5071699;28;20845;-55
2022/10/26 05:05:58;;;;;;;10.35;4.40;;;13.90;1.00;;;;;;5070779;28;20384;-57
2022/10/26 05:08:24;;;;;;;10.63;4.50;;;14.00;1.00;;;;;;5071385;28;20371;-55
2022/10/26 05:10:49;;;;;;;10.37;3.97;;;14.00;1.00;;;;;;5071672;28;20384;-55
2022/10/26 05:13:15;;;;;;;9.65;4.30;;;14.00;1.00;;;;;;5070692;28;20418;-57
2022/10/26 05:15:41;;;;;;;9.93;3.47;;;14.00;1.00;;;;;;5053112;28;20423;-57
2022/10/26 05:18:08;;;;;;;11.15;3.08;;;14.10;1.00;;;;;;5070888;28;20388;-58
2022/10/26 05:20:35;;;;;;;8.85;3.20;;;14.00;1.00;;;;;;5071216;28;20811;-57
2022/10/26 05:23:04;;;;;;;9.50;2.83;;;14.10;1.00;;;;;;5070175;28;20383;-57
2022/10/26 05:25:31;;;;;;;7.03;2.50;;;14.10;1.00;;;;;;5071165;28;20430;-57
2022/10/26 05:28:01;;;;;;;6.70;2.60;;;14.30;1.00;;;;;;5070617;28;20399;-57
2022/10/26 05:30:28;;;;;;;9.25;3.17;;;14.50;1.00;;;;;;5071070;28;20963;-57
2022/10/26 05:32:55;;;;;;;7.63;2.67;;;14.70;1.00;;;;;;5070340;28;20408;-57
2022/10/26 05:35:21;;;;;;;7.80;2.30;;;14.70;1.00;;;;;;5071006;28;20625;-57
2022/10/26 05:37:46;;;;;;;6.97;2.80;;;14.80;99.90;;;;;;5071566;28;20521;-57
2022/10/26 05:40:12;;;;;;;6.73;2.20;;;14.90;99.90;;;;;;5097446;28;20429;-57
2022/10/26 05:42:37;;;;;;;6.93;2.60;;;15.00;99.90;;;;;;5100548;28;20394;-55
2022/10/26 05:45:03;;;;;;;7.30;2.40;;;15.00;99.90;;;;;;5086487;28;20489;-59
2022/10/26 05:47:29;;;;;;;6.23;2.30;;;15.00;99.90;;;;;;5080427;28;20398;-59
2022/10/26 05:49:54;;;;;;;7.10;2.70;;;15.20;99.90;;;;;;5076613;28;20433;-59
2022/10/26 05:52:20;;;;;;;6.70;1.95;;;15.30;99.90;;;;;;5082594;28;20372;-60
2022/10/26 05:54:45;;;;;;;5.90;2.20;;;15.40;99.90;;;;;;5083142;28;20406;-59
2022/10/26 05:57:12;;;;;;;8.40;2.30;;;15.40;99.90;;;;;;5077870;28;20440;-59
2022/10/26 05:59:38;;;;;;;9.13;2.83;;;15.50;99.90;;;;;;5090360;28;20378;-61
2022/10/26 06:02:37;;;;;;;11.60;3.50;;;15.60;99.90;;;;;;5073792;28;21055;-60
2022/10/26 06:05:04;;;;;;;10.55;3.70;;;15.60;19.40;;;;;;5076650;28;20405;-57
2022/10/26 06:07:30;;;;;;;7.20;2.90;;;15.60;25.40;;;;;;5091988;28;20389;-65
2022/10/26 06:09:56;;;;;;;9.13;3.50;;;15.50;15.40;;;;;;5089812;28;20885;-60
2022/10/26 06:12:22;;;;;;;12.02;4.00;;;15.40;92.70;;;;;;5106488;28;20390;-60
2022/10/26 06:14:48;;;;;;;13.13;4.10;;;15.40;99.90;;;;;;5090099;28;20409;-63
2022/10/26 06:17:47;;;;;;;7.95;3.38;;;15.30;99.90;;;;;;5066746;28;20397;-63
2022/10/26 06:20:53;;;;;;;10.80;4.10;;;15.20;99.90;;;;;;5089068;28;20419;-62
2022/10/26 06:23:45;;;;;;;10.82;3.60;;;15.30;99.90;;;;;;5078649;28;20765;-62
2022/10/26 06:26:23;;;;;;;8.00;2.50;;;15.20;99.90;;;;;;5089436;28;20382;-67
2022/10/26 06:29:30;;;;;;;7.75;3.20;;;15.30;99.90;;;;;;5090316;28;20378;-62
2022/10/26 06:31:56;;;;;;;7.13;2.23;;;15.40;99.90;;;;;;5075685;28;20401;-62
2022/10/26 06:34:26;;;;;;;9.80;2.40;;;15.40;99.90;;;;;;5089323;28;20412;-62
2022/10/26 06:36:56;;;;;;;6.88;2.40;;;15.40;99.90;;;;;;5087946;28;20485;-60
2022/10/26 06:39:23;;;;;;;5.60;1.95;;;15.40;13.30;;;;;;5084754;28;20406;-63
2022/10/26 06:41:49;;;;;;;7.45;2.10;;;15.40;1.00;;;;;;5089230;28;20409;-62
2022/10/26 06:44:21;;;;;;;6.50;2.10;;;15.50;1.00;;;;;;5086862;28;20377;-62
2022/10/26 06:47:11;;;;;;;7.20;2.25;;;15.60;1.00;;;;;;5084928;28;20457;-62
2022/10/26 06:49:45;;;;;;;6.18;1.90;;;15.70;99.90;;;;;;5070353;28;20494;-62
2022/10/26 06:52:34;;;;;;;8.57;2.30;;;15.80;99.90;;;;;;5068588;28;20563;-62
2022/10/26 06:55:00;;;;;;;8.82;1.98;;;15.80;99.90;;;;;;5069054;28;20399;-62
2022/10/26 06:57:34;;;;;;;7.60;2.50;;;15.90;99.90;;;;;;5077239;28;20392;-63
2022/10/26 07:00:02;;;;;;;7.30;2.20;;;15.90;99.90;;;;;;5089301;28;20727;-62
2022/10/26 07:02:27;;;;;;;7.20;2.00;;;15.90;93.00;;;;;;5089531;28;20385;-62
2022/10/26 07:04:53;;;;;;;7.57;2.00;;;15.90;1.00;;;;;;5087856;28;20402;-61
2022/10/26 07:07:21;;;;;;;7.43;2.30;;;16.00;1.00;;;;;;5090430;28;20401;-61
2022/10/26 07:09:47;;;;;;;6.80;2.25;;;16.00;99.90;;;;;;5094433;28;20427;-64
2022/10/26 07:12:13;;;;;;;6.63;1.90;;;16.00;99.90;;;;;;5090233;28;20481;-65
2022/10/26 07:14:38;;;;;;;6.80;2.25;;;15.90;1.00;;;;;;5068978;28;20398;-64
2022/10/26 07:17:05;;;;;;;7.55;2.13;;;16.00;1.00;;;;;;5091851;28;20743;-64
2022/10/26 07:19:30;;;;;;;8.38;2.20;;;16.10;1.00;;;;;;5088276;28;20400;-64
2022/10/26 07:22:00;;;;;;;7.60;2.00;;;16.00;1.00;;;;;;5090625;28;20389;-63
2022/10/26 07:24:26;;;;;;;7.80;1.90;;;16.00;1.00;;;;;;5091566;28;20402;-64
2022/10/26 07:26:56;;;;;;;6.55;2.28;;;16.10;61.70;;;;;;5091032;28;20422;-62
2022/10/26 07:29:23;;;;;;;6.38;2.38;;;17.50;57.90;;;;;;5088149;28;20912;-62
2022/10/26 07:31:49;;;;;;;10.00;2.30;;;16.20;32.80;;;;;;5091086;28;20394;-62
2022/10/26 07:34:15;;;;;;;10.07;2.25;;;16.30;1.00;;;;;;5070392;28;20419;-62
2022/10/26 07:36:41;;;;;;;8.70;2.58;;;16.30;1.00;;;;;;5072815;28;20394;-62
2022/10/26 07:39:07;;;;;;;6.73;2.20;;;16.40;1.00;;;;;;5067821;28;20812;-62
2022/10/26 07:41:33;;;;;;;7.88;2.65;;;16.40;1.00;;;;;;5070629;28;20376;-62
2022/10/26 07:43:59;;;;;;;8.27;2.33;;;16.50;1.00;;;;;;5082051;28;20435;-62
2022/10/26 07:46:25;;;;;;;6.40;2.27;;;16.40;1.00;;;;;;5093176;28;20377;-62
2022/10/26 07:48:51;;;;;;;7.00;2.17;;;16.40;1.00;;;;;;5092853;28;20708;-62
2022/10/26 07:51:17;;;;;;;12.27;2.30;;;16.40;25.10;;;;;;5092607;28;21066;-62
2022/10/26 07:53:43;;;;;;;6.10;1.90;;;16.20;99.90;;;;;;5089331;28;20370;-61
2022/10/26 07:56:09;;;;;;;5.75;1.80;;;16.20;1.00;;;;;;5067240;28;20400;-61
2022/10/26 07:58:35;;;;;;;7.93;2.45;;;16.10;1.00;;;;;;5072478;28;20378;-62
2022/10/26 08:01:09;;;;;;;10.33;2.80;;;16.10;1.00;;;;;;5067209;28;20915;-61
2022/10/26 08:03:35;;;;;;;6.78;2.40;;;16.20;1.00;;;;;;5071467;28;20399;-62
2022/10/26 08:06:03;;;;;;;8.47;2.40;;;16.10;1.00;;;;;;5072142;28;20387;-53
2022/10/26 08:08:28;;;;;;;5.95;2.30;;;16.20;1.00;;;;;;5072937;28;20376;-53
2022/10/26 08:10:54;;;;;;;8.15;2.30;;;16.20;1.00;;;;;;5072817;28;20375;-53
2022/10/26 08:13:20;;;;;;;8.73;2.40;;;16.30;1.00;;;;;;5071320;28;20387;-53
2022/10/26 08:15:46;;;;;;;8.43;2.50;;;16.40;1.00;;;;;;5072500;28;20857;-54
2022/10/26 08:18:12;;;;;;;7.97;2.78;;;16.60;99.90;;;;;;5066494;28;20397;-53
2022/10/26 08:20:37;;;;;;;8.52;2.30;;;16.80;99.90;;;;;;5069768;28;20930;-53
2022/10/26 08:23:05;;;;;;;6.83;2.20;;;16.90;1.00;;;;;;5068525;28;20384;-53
2022/10/26 08:25:31;;;;;;;6.85;2.30;;;17.00;1.00;;;;;;5065557;28;20387;-53
2022/10/26 08:28:03;;;;;;;5.72;2.00;;;17.00;99.90;;;;;;5070767;28;20387;-53
2022/10/26 08:30:30;;;;;;;7.70;2.53;;;17.00;32.30;;;;;;5069686;28;20407;-53
2022/10/26 08:33:06;;;;;;;7.82;2.17;;;17.20;1.00;;;;;;5078009;28;20422;-53
2022/10/26 08:35:33;;;;;;;8.00;2.40;;;17.10;99.90;;;;;;5080201;28;20750;-53
2022/10/26 08:37:59;;;;;;;9.65;2.40;;;17.20;1.00;;;;;;5084624;28;20394;-54
2022/10/26 08:40:28;;;;;;;8.60;2.63;;;17.40;99.90;;;;;;5092016;28;20413;-53
2022/10/26 08:43:04;;;;;;;8.77;2.50;;;17.20;99.90;;;;;;5089067;28;20401;-54
2022/10/26 08:45:40;;;;;;;8.07;2.67;;;17.30;99.90;;;;;;5092205;28;20401;-53
2022/10/26 08:48:12;;;;;;;11.73;2.50;;;17.30;99.90;;;;;;5089048;28;20805;-53
2022/10/26 08:50:50;;;;;;;9.88;2.40;;;17.30;99.90;;;;;;5089600;28;20378;-53
2022/10/26 08:53:24;;;;;;;7.97;2.33;;;17.40;99.90;;;;;;5090783;28;20465;-54
2022/10/26 08:56:14;;;;;;;8.10;2.70;;;17.60;1.00;;;;;;5091361;28;20408;-53
2022/10/26 08:58:48;;;;;;;6.43;2.25;;;17.60;1.00;;;;;;5089101;28;20705;-54
2022/10/26 09:01:14;;;;;;;9.27;2.35;;;17.70;9.30;;;;;;5087760;28;20422;-54
2022/10/26 09:03:40;;;;;;;6.80;2.40;;;17.80;1.00;;;;;;5091554;28;20976;-53
2022/10/26 09:06:19;;;;;;;8.60;2.15;;;17.90;1.00;;;;;;5085814;28;20434;-54
2022/10/26 09:09:07;;;;;;;7.03;2.25;;;18.20;99.90;;;;;;5084854;28;20384;-53
2022/10/26 09:11:57;;;;;;;8.00;2.65;;;18.30;1.00;;;;;;5091362;28;20874;-53
2022/10/26 09:14:43;;;;;;;7.68;2.35;;;18.60;99.90;;;;;;5084766;28;20418;-53
2022/10/26 09:17:50;;;;;;;7.50;2.20;;;19.00;1.00;;;;;;5086212;28;20887;-53
2022/10/26 09:20:51;;;;;;;8.70;2.40;;;19.30;1.00;;;;;;5088504;28;20390;-54
2022/10/26 09:23:47;;;;;;;7.30;2.67;;;19.80;99.90;;;;;;4976771;28;20466;-53
2022/10/26 09:26:18;;;;;;;8.50;2.60;;;19.90;1.00;;;;;;5081184;28;20409;-54
2022/10/26 09:28:46;;;;;;;7.82;2.40;;;20.30;1.00;;;;;;5091300;28;20451;-53
2022/10/26 09:31:15;;;;;;;8.90;2.20;;;20.50;1.00;;;;;;5088578;28;20874;-53
2022/10/26 09:33:41;;;;;;;7.50;1.90;;;20.80;99.90;;;;;;5091342;28;20409;-53
2022/10/26 09:36:18;;;;;;;9.77;2.47;;;21.40;99.90;;;;;;5089940;28;20760;-53
2022/10/26 09:39:07;;;;;;;9.40;2.30;;;22.90;1.00;;;;;;5089933;28;20417;-53
2022/10/26 09:41:47;;;;;;;9.68;2.50;;;23.10;1.00;;;;;;5091386;28;20740;-53
2022/10/26 09:44:48;;;;;;;6.95;2.00;;;23.40;1.00;;;;;;5090380;28;20920;-53
2022/10/26 09:47:34;;;;;;;7.88;2.78;;;24.40;1.00;;;;;;5076578;28;20399;-53
2022/10/26 09:50:26;;;;;;;7.20;2.20;;;25.50;1.00;;;;;;5089952;28;20392;-53
2022/10/26 09:52:52;;;;;;;14.35;2.90;;;25.70;1.00;;;;;;5082267;28;20393;-53
2022/10/26 09:55:19;;;;;;;10.10;2.10;;;25.70;1.00;;;;;;5088786;28;20393;-52
2022/10/26 09:57:49;;;;;;;7.17;1.87;;;25.50;1.00;;;;;;5090595;28;20386;-52
2022/10/26 10:00:16;;;;;;;8.57;2.10;;;24.90;1.00;;;;;;5089675;28;20573;-52
2022/10/26 10:02:44;;;;;;;12.80;3.03;;;23.70;1.00;;;;;;5091230;28;20393;-52
2022/10/26 10:05:23;;;;;;;9.73;3.87;;;22.50;1.00;;;;;;5090450;28;20393;-52
2022/10/26 10:07:49;;;;;;;9.45;2.75;;;22.00;1.00;;;;;;5090788;28;20378;-53
2022/10/26 10:10:17;;;;;;;6.55;2.40;;;21.70;1.00;;;;;;5089977;28;20370;-52
2022/10/26 10:12:43;;;;;;;8.40;2.30;;;21.40;1.00;;;;;;5090664;28;20872;-52
2022/10/26 10:15:23;;;;;;;7.00;2.00;;;21.20;1.00;;;;;;5089981;28;20394;-52
2022/10/26 10:17:51;;;;;;;9.77;2.60;;;20.90;1.00;;;;;;5090601;28;20381;-52
2022/10/26 10:20:22;;;;;;;7.85;2.40;;;21.00;1.00;;;;;;5089266;28;21276;-52
2022/10/26 10:22:57;;;;;;;9.10;2.30;;;21.10;1.00;;;;;;5090388;28;20362;-53
2022/10/26 10:25:37;;;;;;;9.25;2.60;;;21.40;1.00;;;;;;5089686;28;20871;-52
2022/10/26 10:28:24;;;;;;;8.73;2.33;;;22.60;1.00;;;;;;5088898;28;20848;-53
2022/10/26 10:30:56;;;;;;;7.63;2.30;;;23.30;1.00;;;;;;5090565;28;20727;-53
2022/10/26 10:33:22;;;;;;;10.75;2.67;;;23.30;1.00;;;;;;5088653;28;20964;-53
2022/10/26 10:35:50;;;;;;;8.85;2.50;;;23.50;1.00;;;;;;5090245;28;20512;-53
2022/10/26 10:38:19;;;;;;;8.65;2.10;;;23.30;1.00;;;;;;5089398;28;20378;-55
2022/10/26 10:40:57;;;;;;;8.85;2.10;;;22.60;1.00;;;;;;5090113;28;20374;-55
2022/10/26 10:43:24;;;;;;;9.70;2.40;;;23.00;1.00;;;;;;5089766;28;20370;-53
2022/10/26 10:45:52;;;;;;;8.23;2.40;;;24.00;1.00;;;;;;5089628;28;20385;-53
2022/10/26 10:48:21;;;;;;;10.97;2.47;;;24.60;1.00;;;;;;5089563;28;20386;-53
2022/10/26 10:50:59;;;;;;;7.03;2.33;;;25.00;1.00;;;;;;5089832;28;20377;-52
2022/10/26 10:53:50;;;;;;;8.10;2.28;;;24.70;1.00;;;;;;5089574;28;20904;-52
2022/10/26 10:56:37;;;;;;;9.55;2.47;;;24.30;1.00;;;;;;5088693;28;20402;-53
2022/10/26 10:59:28;;;;;;;8.17;1.90;;;23.90;1.00;;;;;;5088935;28;20518;-54
2022/10/26 11:02:33;;;;;;;7.70;2.25;;;24.50;1.00;;;;;;5090291;28;20847;-53
2022/10/26 11:05:05;;;;;;;10.57;2.10;;;25.30;1.00;;;;;;5088859;28;20386;-53
2022/10/26 11:07:35;;;;;;;9.87;2.63;;;25.00;1.00;;;;;;5090268;28;20378;-52
2022/10/26 11:10:07;;;;;;;9.85;1.90;;;24.40;1.00;;;;;;5089491;28;20431;-52
2022/10/26 11:12:43;;;;;;;6.80;2.30;;;25.00;1.00;;;;;;5089941;28;20508;-52
2022/10/26 11:15:18;;;;;;;8.77;1.85;;;25.00;1.00;;;;;;5089323;28;20414;-52
2022/10/26 11:18:13;;;;;;;10.00;2.25;;;24.60;1.00;;;;;;5089705;28;20436;-52
2022/10/26 11:20:48;;;;;;;10.40;2.72;;;23.90;1.00;;;;;;5089626;28;20507;-53
2022/10/26 11:23:47;;;;;;;9.18;2.10;;;23.90;1.00;;;;;;5088963;28;20443;-53
2022/10/26 11:26:19;;;;;;;8.45;1.95;;;24.00;1.00;;;;;;5088168;28;20436;-53
2022/10/26 11:29:09;;;;;;;9.10;1.60;;;24.10;1.00;;;;;;5089381;28;20371;-53
2022/10/26 11:31:42;;;;;;;8.95;1.70;;;23.70;1.00;;;;;;5089410;28;20393;-53
2022/10/26 11:34:32;;;;;;;12.50;1.65;;;23.50;1.00;;;;;;5088568;28;20448;-52
2022/10/26 11:37:09;;;;;;;8.20;2.10;;;23.30;1.00;;;;;;5089184;28;20428;-53
2022/10/26 11:39:44;;;;;;;8.25;1.90;;;23.40;1.00;;;;;;5089472;28;20427;-53
2022/10/26 11:42:30;;;;;;;9.10;2.55;;;23.30;1.00;;;;;;5088557;28;20375;-55
2022/10/26 11:45:09;;;;;;;6.30;1.80;;;23.20;1.00;;;;;;5089244;28;20398;-55
2022/10/26 11:47:50;;;;;;;8.80;1.60;;;23.30;1.00;;;;;;5089447;28;20373;-55
2022/10/26 11:50:26;;;;;;;6.43;1.65;;;23.40;1.00;;;;;;5088880;28;20390;-55
2022/10/26 11:53:07;;;;;;;8.95;1.95;;;23.30;1.00;;;;;;5089569;28;20453;-55
2022/10/26 11:55:32;;;;;;;8.30;2.40;;;23.70;1.00;;;;;;5092914;28;20416;-52
2022/10/26 11:57:58;;;;;;;9.10;1.77;;;23.90;1.00;;;;;;5092309;28;20864;-55
2022/10/26 12:00:25;;;;;;;10.63;2.38;;;23.80;1.00;;;;;;5092416;28;20381;-56
2022/10/26 12:03:07;;;;;;;6.25;1.30;;;23.70;1.00;;;;;;5092617;28;20382;-55
2022/10/26 12:05:51;;;;;;;6.17;1.43;;;23.30;1.00;;;;;;5092590;28;20418;-53
2022/10/26 12:08:23;;;;;;;7.40;1.38;;;23.40;1.00;;;;;;5092109;28;20743;-53
2022/10/26 12:11:03;;;;;;;7.50;2.10;;;23.50;1.00;;;;;;5092504;28;20382;-53
2022/10/26 12:13:41;;;;;;;7.90;1.70;;;23.40;1.00;;;;;;5092577;28;20851;-54
2022/10/26 12:16:20;;;;;;;5.68;1.50;;;23.10;1.00;;;;;;5091790;28;20410;-53
2022/10/26 12:18:56;;;;;;;7.05;1.75;;;22.90;1.00;;;;;;5092538;28;20715;-53
2022/10/26 12:21:26;;;;;;;6.05;1.52;;;22.80;1.00;;;;;;5091600;28;20450;-53
2022/10/26 12:24:00;;;;;;;6.95;1.58;;;22.80;1.00;;;;;;5092685;28;20850;-53
2022/10/26 12:26:26;;;;;;;5.90;1.70;;;22.90;1.00;;;;;;5091905;28;20420;-53
2022/10/26 12:29:00;;;;;;;10.10;1.60;;;23.00;1.00;;;;;;5092227;28;20497;-53
2022/10/26 12:31:35;;;;;;;6.90;1.70;;;23.20;1.00;;;;;;5091618;28;20401;-53
2022/10/26 12:34:21;;;;;;;8.80;1.80;;;23.30;1.00;;;;;;5091557;28;20451;-53
2022/10/26 12:36:55;;;;;;;8.82;2.00;;;23.40;1.00;;;;;;5092179;28;20381;-53
2022/10/26 12:39:50;;;;;;;7.88;1.80;;;23.40;1.00;;;;;;5091211;28;20432;-53
2022/10/26 12:42:16;;;;;;;9.07;2.00;;;23.50;1.00;;;;;;5069741;28;20779;-53
2022/10/26 12:44:44;;;;;;;9.50;1.60;;;23.60;1.00;;;;;;5073393;28;20493;-53
2022/10/26 12:47:30;;;;;;;6.70;1.90;;;23.70;1.00;;;;;;5090873;28;20820;-53
2022/10/26 12:50:04;;;;;;;10.88;1.92;;;23.60;1.00;;;;;;5091330;28;20390;-53
2022/10/26 12:52:51;;;;;;;9.20;1.90;;;23.50;1.00;;;;;;5091133;28;20426;-53
2022/10/26 12:55:55;;;;;;;11.02;1.80;;;23.60;1.00;;;;;;5091102;28;20413;-53
2022/10/26 12:58:24;;;;;;;9.15;1.60;;;23.70;1.00;;;;;;5090739;28;20982;-54
2022/10/26 13:00:59;;;;;;;7.57;2.10;;;23.90;1.00;;;;;;5091477;28;20394;-53
2022/10/26 13:03:34;;;;;;;6.18;1.50;;;23.80;1.00;;;;;;5072844;28;20722;-53
2022/10/26 13:06:25;;;;;;;7.53;1.90;;;23.80;1.00;;;;;;5090273;28;20386;-54
2022/10/26 13:08:54;;;;;;;8.05;2.35;;;23.60;1.00;;;;;;5091028;28;20453;-53
2022/10/26 13:11:41;;;;;;;5.78;1.63;;;23.40;1.00;;;;;;5090454;28;20385;-53
2022/10/26 13:14:20;;;;;;;7.18;1.70;;;23.60;1.00;;;;;;5090094;28;20389;-54
2022/10/26 13:16:47;;;;;;;6.65;1.38;;;23.90;1.00;;;;;;5091122;28;20416;-53